»·PEaware :: HYDRA63 KDLF-KSKF

HYDRA63 :: KDLF-KSKF

FLIGHT INFORMATION

Flight Status: Arrived
Operator: Unknown
More flights by this operator :: More flights under this callsign
Pilot: 47th FTW Laughlin (28783)
Aircraft: BEECH AIRCRAFT T-6A TEXAN
(TEX2)
More flights by this aircraft type
Origin: KDLF Laughlin AFB
United States
Destination: KSKF Lackland AFB Kelly Fld Annex
United States
More flights between these airports :: More routes between these airports
Route: +KDLF HINKO1 HINKO JCT KJCT/D0+15 JCT CSI2
File this flight plan on PilotEdge
Remarks:
Altitude:
(Current/Filed)
15,000ft
Speed:
(Current/Filed)
250kts
Departed: 06-Aug-20 10:51 AM
Arrived: 06-Aug-20 12:05 PM
Distance/Time
Traveled:
115nm/1:14
Distance/Time
To Go:
Arrived

Flight Plot

Page will automatically refresh every two minutes.

Flight plan parsing failed; only flown route is shown


Map Options




Map Legend


Flown Route
Filed Route
Departure Airport
Arrival Airport
Navaid (VOR, NDB)
Fix

Horizontal Profiles

Position Reports

Time Latitude Longitude Heading Altitude Ground
Speed
06-Aug-20 10:34 29.538044 -98.483793 33 773ft 0kts
06-Aug-20 10:35 29.538044 -98.483793 33 773ft 0kts
06-Aug-20 10:36 29.538044 -98.483793 33 773ft 0kts
06-Aug-20 10:37 29.538044 -98.483793 33 773ft 0kts
06-Aug-20 10:38 29.362459 -100.787409 45 1074ft 0kts
06-Aug-20 10:39 29.362459 -100.787408 45 1074ft 0kts
06-Aug-20 10:40 29.362459 -100.787408 45 1074ft 0kts
06-Aug-20 10:41 29.362459 -100.787408 45 1074ft 0kts
06-Aug-20 10:42 29.362459 -100.787408 45 1074ft 0kts
06-Aug-20 10:43 29.362459 -100.787408 45 1074ft 0kts
06-Aug-20 10:44 29.362459 -100.787408 45 1074ft 0kts
06-Aug-20 10:45 29.362459 -100.787408 45 1074ft 0kts
06-Aug-20 10:46 29.362459 -100.787408 45 1074ft 0kts
06-Aug-20 10:47 29.363558 -100.788176 315 1075ft 9kts
06-Aug-20 10:48 29.365938 -100.788921 44 1078ft 18kts
06-Aug-20 10:49 29.366848 -100.787832 48 1080ft 7kts
06-Aug-20 10:50 29.352317 -100.771207 132 1687ft 164kts
06-Aug-20 10:51 29.317242 -100.728566 133 4590ft 170kts
06-Aug-20 10:52 29.302063 -100.684519 41 7818ft 189kts
06-Aug-20 10:53 29.355464 -100.685669 357 10929ft 203kts
06-Aug-20 10:54 29.414618 -100.690378 347 9889ft 270kts
06-Aug-20 10:55 29.475888 -100.671491 39 9945ft 234kts
06-Aug-20 10:56 29.526088 -100.625038 42 10057ft 230kts
06-Aug-20 10:57 29.577556 -100.578775 39 9987ft 236kts
06-Aug-20 10:58 29.631103 -100.532527 38 9986ft 240kts
06-Aug-20 10:59 29.685220 -100.486497 39 10010ft 239kts
06-Aug-20 11:00 29.738787 -100.440601 36 9910ft 243kts
06-Aug-20 11:01 29.794418 -100.398186 34 10035ft 239kts
06-Aug-20 11:02 29.847020 -100.350904 38 9982ft 242kts
06-Aug-20 11:03 29.900449 -100.302947 41 10008ft 238kts
06-Aug-20 11:04 29.951732 -100.253997 42 10047ft 238kts
06-Aug-20 11:05 30.002688 -100.204121 43 9960ft 242kts
06-Aug-20 11:06 30.053549 -100.152906 42 9867ft 243kts
06-Aug-20 11:07 30.111023 -100.114072 19 9874ft 247kts
06-Aug-20 11:08 30.178485 -100.107085 5 9992ft 242kts
06-Aug-20 11:09 30.241070 -100.079842 28 9965ft 242kts
06-Aug-20 11:10 30.301404 -100.046438 29 8497ft 242kts
06-Aug-20 11:11 30.356345 -100.006342 40 6477ft 228kts
06-Aug-20 11:12 30.403337 -99.959338 34 4998ft 223kts
06-Aug-20 11:13 30.454800 -99.924316 31 4040ft 199kts
06-Aug-20 11:14 30.499328 -99.892165 36 3969ft 183kts
06-Aug-20 11:15 30.541252 -99.861163 34 3982ft 176kts
06-Aug-20 11:16 30.579894 -99.830705 31 4103ft 159kts
06-Aug-20 11:17 30.604887 -99.815040 29 4142ft 157kts
06-Aug-20 11:18 30.607801 -99.813355 28 4150ft 156kts
06-Aug-20 11:19 30.639407 -99.846568 327 4052ft 175kts
06-Aug-20 11:20 30.681522 -99.873334 336 4059ft 173kts
06-Aug-20 11:21 30.704143 -99.917939 284 4012ft 170kts
06-Aug-20 11:22 30.718903 -99.913720 105 4132ft 149kts
06-Aug-20 11:23 30.694218 -99.878065 150 4221ft 156kts
06-Aug-20 11:24 30.660303 -99.856871 149 4020ft 110kts
06-Aug-20 11:25 30.632831 -99.839744 147 3976ft 120kts
06-Aug-20 11:26 30.604814 -99.820626 147 4066ft 113kts
06-Aug-20 11:27 30.577655 -99.803466 154 3485ft 108kts
06-Aug-20 11:28 30.557352 -99.793173 150 2899ft 106kts
06-Aug-20 11:29 30.530585 -99.775449 151 2615ft 116kts
06-Aug-20 11:30 30.498229 -99.776646 179 2604ft 119kts
06-Aug-20 11:31 30.500749 -99.764551 4 1788ft 129kts
06-Aug-20 11:32 30.502602 -99.757886 115 3763ft 151kts
06-Aug-20 11:33 30.542132 -99.764103 346 4009ft 189kts
06-Aug-20 11:34 30.564270 -99.792551 264 5928ft 179kts
06-Aug-20 11:35 30.529078 -99.774524 140 8444ft 157kts
06-Aug-20 11:36 30.493180 -99.742871 142 11607ft 166kts
06-Aug-20 11:37 30.455540 -99.708514 141 14635ft 185kts
06-Aug-20 11:38 30.407788 -99.664202 140 14997ft 253kts
06-Aug-20 11:39 30.355051 -99.615976 143 15034ft 235kts
06-Aug-20 11:40 30.303984 -99.570771 142 15051ft 230kts
06-Aug-20 11:41 30.252610 -99.526731 143 15079ft 228kts
06-Aug-20 11:42 30.204875 -99.477671 140 15033ft 230kts
06-Aug-20 11:43 30.155328 -99.431377 141 15026ft 231kts
06-Aug-20 11:44 30.105852 -99.384018 140 15053ft 229kts
06-Aug-20 11:45 30.058381 -99.334916 139 15084ft 229kts
06-Aug-20 11:46 30.008316 -99.288968 147 15015ft 232kts
06-Aug-20 11:47 29.956571 -99.245610 143 14789ft 229kts
06-Aug-20 11:48 29.906318 -99.200580 143 12915ft 242kts
06-Aug-20 11:49 29.884704 -99.141932 80 10707ft 252kts
06-Aug-20 11:50 29.868354 -99.069852 115 10005ft 231kts
06-Aug-20 11:51 29.843024 -99.001704 135 8277ft 242kts
06-Aug-20 11:52 29.798635 -98.948311 134 5999ft 224kts
06-Aug-20 11:53 29.756637 -98.897305 136 4004ft 198kts
06-Aug-20 11:54 29.716487 -98.855048 134 4048ft 203kts
06-Aug-20 11:55 29.676190 -98.808842 136 4064ft 210kts
06-Aug-20 11:56 29.635734 -98.760902 132 4043ft 209kts
06-Aug-20 11:57 29.595290 -98.713684 135 3174ft 193kts
06-Aug-20 11:58 29.558724 -98.674045 134 3208ft 173kts
06-Aug-20 11:59 29.524533 -98.635906 136 3019ft 160kts
06-Aug-20 12:00 29.489779 -98.621436 154 2408ft 128kts
06-Aug-20 12:01 29.462509 -98.610593 151 2038ft 114kts
06-Aug-20 12:02 29.437693 -98.600934 156 1528ft 108kts
06-Aug-20 12:03 29.410800 -98.590660 163 987ft 105kts
06-Aug-20 12:05 29.386302 -98.581871 160 692ft 28kts
06-Aug-20 12:06 29.384043 -98.582151 273 692ft 12kts
06-Aug-20 12:07 29.384043 -98.582151 273 692ft 12kts
06-Aug-20 12:08 29.384043 -98.582151 273 692ft 12kts
06-Aug-20 12:09 29.384043 -98.582151 273 692ft 12kts
06-Aug-20 12:10 29.384043 -98.582151 273 692ft 12kts
06-Aug-20 12:11 29.384043 -98.582151 273 692ft 12kts
06-Aug-20 12:12 29.384043 -98.582151 273 692ft 12kts
06-Aug-20 12:13 29.384043 -98.582151 273 692ft 12kts
06-Aug-20 12:14 29.384043 -98.582151 273 692ft 12kts
06-Aug-20 12:15 29.384043 -98.582151 273 692ft 12kts
06-Aug-20 12:16 29.384043 -98.582151 273 692ft 12kts
06-Aug-20 12:17 29.384043 -98.582151 273 692ft 12kts
06-Aug-20 12:18 29.384043 -98.582151 273 692ft 12kts
06-Aug-20 12:19 29.384043 -98.582151 273 692ft 12kts

Navigation Log

Ident Type
Flight plan parsing failed, navigation log unavailable